Time;durP1;ratioP1;P1;durP2;ratioP2;P2;SDS_P1;SDS_P2;PMS_P1;PMS_P2;Temp;Humidity;BMP_temperature;BMP_pressure;BME280_temperature;BME280_humidity;BME280_pressure;Samples;Min_cycle;Max_cycle;Signal;HPM_P1;HPM_P2
2023/12/11 00:01:10;;;;;;;34.00;6.65;;;;;;;;;;5062972;28;20927;-76
2023/12/11 00:03:37;;;;;;;35.58;6.63;;;;;;;;;;5090304;28;20438;-75
2023/12/11 00:06:03;;;;;;;34.50;6.60;;;;;;;;;;5071970;28;20403;-75
2023/12/11 00:08:29;;;;;;;39.22;8.35;;;;;;;;;;5073024;28;20415;-75
2023/12/11 00:10:55;;;;;;;38.72;6.53;;;;;;;;;;5070676;28;20423;-75
2023/12/11 00:13:22;;;;;;;36.60;6.95;;;;;;;;;;5059034;28;20802;-75
2023/12/11 00:15:48;;;;;;;42.05;7.88;;;;;;;;;;5072055;28;20400;-75
2023/12/11 00:18:14;;;;;;;40.13;8.00;;;;;;;;;;5087774;28;20407;-75
2023/12/11 00:20:40;;;;;;;36.20;6.80;;;;;;;;;;5077178;28;20453;-75
2023/12/11 00:23:06;;;;;;;40.13;7.15;;;;;;;;;;5072645;28;20403;-75
2023/12/11 00:25:32;;;;;;;41.63;7.63;;;;;;;;;;5078529;28;20423;-75
2023/12/11 00:27:58;;;;;;;38.23;6.37;;;;;;;;;;5072060;28;20907;-75
2023/12/11 00:30:24;;;;;;;48.65;7.72;;;;;;;;;;5074266;28;20481;-75
2023/12/11 00:32:50;;;;;;;45.88;7.82;;;;;;;;;;5071662;28;20410;-75
2023/12/11 00:35:16;;;;;;;43.75;8.25;;;;;;;;;;5071404;28;20400;-75
2023/12/11 00:37:42;;;;;;;42.50;7.30;;;;;;;;;;5051914;28;20405;-75
2023/12/11 00:40:09;;;;;;;37.95;7.25;;;;;;;;;;5061853;28;20423;-75
2023/12/11 00:42:35;;;;;;;39.92;6.90;;;;;;;;;;5053965;28;20420;-75
2023/12/11 00:45:01;;;;;;;49.33;8.48;;;;;;;;;;5071137;28;20532;-75
2023/12/11 00:47:27;;;;;;;45.78;7.65;;;;;;;;;;5071245;28;20396;-75
2023/12/11 00:49:53;;;;;;;46.30;7.07;;;;;;;;;;5058604;28;20859;-75
2023/12/11 00:52:19;;;;;;;38.35;7.95;;;;;;;;;;5070904;28;20430;-79
2023/12/11 00:54:45;;;;;;;46.20;7.63;;;;;;;;;;5071408;28;20403;-79
2023/12/11 00:57:11;;;;;;;48.85;7.85;;;;;;;;;;5088388;28;20479;-78
2023/12/11 00:59:38;;;;;;;38.10;6.80;;;;;;;;;;5072349;28;20423;-78
2023/12/11 01:02:05;;;;;;;45.10;8.02;;;;;;;;;;5081855;28;20794;-78
2023/12/11 01:04:31;;;;;;;43.25;7.13;;;;;;;;;;5071367;28;20407;-79
2023/12/11 01:06:57;;;;;;;42.80;7.03;;;;;;;;;;5070747;28;20775;-79
2023/12/11 01:09:23;;;;;;;45.88;7.30;;;;;;;;;;5071864;28;20474;-78
2023/12/11 01:11:49;;;;;;;36.65;7.25;;;;;;;;;;5071565;28;20403;-79
2023/12/11 01:14:15;;;;;;;41.77;6.80;;;;;;;;;;5054900;28;20810;-79
2023/12/11 01:16:41;;;;;;;50.13;7.70;;;;;;;;;;5071079;28;20407;-79
2023/12/11 01:19:08;;;;;;;37.50;7.20;;;;;;;;;;5071273;28;20934;-78
2023/12/11 01:21:34;;;;;;;40.28;7.55;;;;;;;;;;5104716;28;20435;-75
2023/12/11 01:24:00;;;;;;;43.40;6.78;;;;;;;;;;5056124;28;20418;-75
2023/12/11 01:26:26;;;;;;;38.80;6.60;;;;;;;;;;5088573;28;20438;-75
2023/12/11 01:28:52;;;;;;;37.53;6.68;;;;;;;;;;5083661;28;20953;-75
2023/12/11 01:31:18;;;;;;;30.42;6.18;;;;;;;;;;5076824;28;20422;-75
2023/12/11 01:33:44;;;;;;;43.50;7.43;;;;;;;;;;5070280;28;20399;-75
2023/12/11 01:36:10;;;;;;;38.28;6.30;;;;;;;;;;5070965;28;20460;-75
2023/12/11 01:38:36;;;;;;;44.38;6.55;;;;;;;;;;5069855;28;20950;-75
2023/12/11 01:41:02;;;;;;;39.17;6.30;;;;;;;;;;5050271;28;20419;-75
2023/12/11 01:43:29;;;;;;;38.80;7.15;;;;;;;;;;5061439;28;20893;-75
2023/12/11 01:45:58;;;;;;;31.90;5.78;;;;;;;;;;5039018;28;20391;-75
2023/12/11 01:48:24;;;;;;;33.55;6.43;;;;;;;;;;5069570;28;20402;-75
2023/12/11 01:50:50;;;;;;;34.05;6.80;;;;;;;;;;5057142;28;20398;-75
2023/12/11 01:53:16;;;;;;;30.70;7.00;;;;;;;;;;5048246;28;20403;-76
2023/12/11 01:55:42;;;;;;;46.13;7.22;;;;;;;;;;5055620;28;20479;-75
2023/12/11 01:58:08;;;;;;;36.83;6.78;;;;;;;;;;5083283;28;20435;-76
2023/12/11 02:00:34;;;;;;;36.55;7.18;;;;;;;;;;5070161;28;20415;-76
2023/12/11 02:03:00;;;;;;;34.60;7.57;;;;;;;;;;5078234;28;20404;-75
2023/12/11 02:05:27;;;;;;;38.33;6.10;;;;;;;;;;5075998;28;20760;-76
2023/12/11 02:07:53;;;;;;;44.22;6.72;;;;;;;;;;5069544;28;20499;-75
2023/12/11 02:10:19;;;;;;;42.78;6.90;;;;;;;;;;5077650;28;20887;-75
2023/12/11 02:12:45;;;;;;;34.80;6.70;;;;;;;;;;5053812;28;20430;-76
2023/12/11 02:15:11;;;;;;;36.00;6.70;;;;;;;;;;5069037;28;20443;-78
2023/12/11 02:17:37;;;;;;;43.05;7.05;;;;;;;;;;5070129;28;20458;-79
2023/12/11 02:20:05;;;;;;;41.15;7.00;;;;;;;;;;5070432;28;20834;-79
2023/12/11 02:22:31;;;;;;;46.03;8.15;;;;;;;;;;5071011;28;20410;-79
2023/12/11 02:25:02;;;;;;;38.53;7.00;;;;;;;;;;5069790;28;20403;-78
2023/12/11 02:27:28;;;;;;;45.33;7.35;;;;;;;;;;5081982;28;20407;-79
2023/12/11 02:29:56;;;;;;;43.55;7.65;;;;;;;;;;5069920;28;20413;-76
2023/12/11 02:32:22;;;;;;;34.47;7.20;;;;;;;;;;5068568;28;20419;-76
2023/12/11 02:34:48;;;;;;;43.22;7.47;;;;;;;;;;5073988;28;20400;-76
2023/12/11 02:37:14;;;;;;;40.58;7.60;;;;;;;;;;5068664;28;20418;-76
2023/12/11 02:39:41;;;;;;;41.47;7.32;;;;;;;;;;5097318;28;20720;-76
2023/12/11 02:42:07;;;;;;;43.75;8.30;;;;;;;;;;5087652;28;20402;-75
2023/12/11 02:44:33;;;;;;;45.95;7.70;;;;;;;;;;5056640;28;20415;-75
2023/12/11 02:46:59;;;;;;;45.53;8.70;;;;;;;;;;5113906;27;20748;-75
2023/12/11 02:49:25;;;;;;;45.53;7.32;;;;;;;;;;5106161;28;20423;-76
2023/12/11 02:51:51;;;;;;;48.20;8.20;;;;;;;;;;5061455;28;20411;-75
2023/12/11 02:54:17;;;;;;;42.70;8.13;;;;;;;;;;5077979;28;20403;-75
2023/12/11 02:56:43;;;;;;;48.45;8.15;;;;;;;;;;5076444;28;20743;-75
2023/12/11 02:59:09;;;;;;;47.58;8.55;;;;;;;;;;5080801;28;20449;-75
2023/12/11 03:01:39;;;;;;;53.92;8.00;;;;;;;;;;5073077;28;20506;-75
2023/12/11 03:04:05;;;;;;;42.87;8.30;;;;;;;;;;5072843;28;20407;-75
2023/12/11 03:06:31;;;;;;;43.08;7.57;;;;;;;;;;5071557;28;20423;-75
2023/12/11 03:09:01;;;;;;;50.85;8.27;;;;;;;;;;5087651;28;20401;-76
2023/12/11 03:11:27;;;;;;;46.78;7.68;;;;;;;;;;5069658;28;20477;-79
2023/12/11 03:13:53;;;;;;;43.83;7.97;;;;;;;;;;5079895;28;20402;-80
2023/12/11 03:16:19;;;;;;;48.33;9.43;;;;;;;;;;5093786;28;20515;-79
2023/12/11 03:18:46;;;;;;;45.38;6.78;;;;;;;;;;5074121;28;20423;-79
2023/12/11 03:21:12;;;;;;;44.38;8.43;;;;;;;;;;5072811;28;20403;-79
2023/12/11 03:23:38;;;;;;;45.45;7.68;;;;;;;;;;5071491;28;20434;-80
2023/12/11 03:26:04;;;;;;;37.22;7.43;;;;;;;;;;5079193;28;20439;-79
2023/12/11 03:28:30;;;;;;;49.63;8.00;;;;;;;;;;5089938;28;20403;-79
2023/12/11 03:30:57;;;;;;;44.78;8.32;;;;;;;;;;5056964;28;20800;-79
2023/12/11 03:33:23;;;;;;;44.95;8.38;;;;;;;;;;5077704;28;20459;-79
2023/12/11 03:35:49;;;;;;;49.95;7.82;;;;;;;;;;5056272;28;20442;-79
2023/12/11 03:38:15;;;;;;;42.35;7.93;;;;;;;;;;5094949;28;20431;-79
2023/12/11 03:40:41;;;;;;;40.85;7.55;;;;;;;;;;5057344;28;20570;-76
2023/12/11 03:43:07;;;;;;;53.50;7.85;;;;;;;;;;5093054;28;20394;-76
2023/12/11 03:45:33;;;;;;;50.27;9.17;;;;;;;;;;5065484;28;20982;-76
2023/12/11 03:47:59;;;;;;;46.28;8.88;;;;;;;;;;5073157;28;20513;-75
2023/12/11 03:50:25;;;;;;;53.25;8.63;;;;;;;;;;5074083;28;20426;-75
2023/12/11 03:52:51;;;;;;;43.45;7.80;;;;;;;;;;5061558;28;20404;-76
2023/12/11 03:55:17;;;;;;;49.20;8.73;;;;;;;;;;5057105;28;20431;-76
2023/12/11 03:57:43;;;;;;;48.60;7.97;;;;;;;;;;5064177;28;20414;-76
2023/12/11 04:00:10;;;;;;;50.55;8.85;;;;;;;;;;5073611;28;20415;-76
2023/12/11 04:02:36;;;;;;;45.15;7.50;;;;;;;;;;5075447;28;20400;-76
2023/12/11 04:05:03;;;;;;;45.92;8.02;;;;;;;;;;5057453;28;20491;-75
2023/12/11 04:07:30;;;;;;;50.58;8.43;;;;;;;;;;5067636;28;20913;-75
2023/12/11 04:09:56;;;;;;;44.95;8.48;;;;;;;;;;5071002;28;20922;-75
2023/12/11 04:12:22;;;;;;;45.20;8.32;;;;;;;;;;5090049;28;20414;-75
2023/12/11 04:14:48;;;;;;;46.85;7.93;;;;;;;;;;5078328;28;20465;-79
2023/12/11 04:17:14;;;;;;;48.00;8.03;;;;;;;;;;5076713;28;20563;-79
2023/12/11 04:19:40;;;;;;;37.75;8.43;;;;;;;;;;5084811;28;20986;-79
2023/12/11 04:22:06;;;;;;;47.17;8.05;;;;;;;;;;5073297;28;20399;-78
2023/12/11 04:24:33;;;;;;;38.45;7.63;;;;;;;;;;5070255;28;20429;-78
2023/12/11 04:26:59;;;;;;;43.70;7.27;;;;;;;;;;5091325;28;20771;-79
2023/12/11 04:29:25;;;;;;;43.97;7.30;;;;;;;;;;5072043;28;20415;-79
2023/12/11 04:31:51;;;;;;;45.25;7.75;;;;;;;;;;5067860;28;20422;-79
2023/12/11 04:34:17;;;;;;;33.78;6.63;;;;;;;;;;5055585;28;20950;-75
2023/12/11 04:36:43;;;;;;;49.43;8.30;;;;;;;;;;5078021;28;20447;-76
2023/12/11 04:39:09;;;;;;;45.05;7.63;;;;;;;;;;5075545;28;20918;-79
2023/12/11 04:41:36;;;;;;;42.10;7.28;;;;;;;;;;5082932;28;20478;-76
2023/12/11 04:44:02;;;;;;;38.53;6.95;;;;;;;;;;5038232;28;20773;-79
2023/12/11 04:46:28;;;;;;;36.57;5.90;;;;;;;;;;5090367;28;20413;-79
2023/12/11 04:48:54;;;;;;;43.58;6.75;;;;;;;;;;5053922;28;20409;-79
2023/12/11 04:51:20;;;;;;;42.85;7.18;;;;;;;;;;5072973;28;20455;-80
2023/12/11 04:53:46;;;;;;;42.10;7.25;;;;;;;;;;5055793;28;20403;-80
2023/12/11 04:56:12;;;;;;;39.10;6.57;;;;;;;;;;5039427;28;20798;-80
2023/12/11 04:58:38;;;;;;;36.50;6.18;;;;;;;;;;5072359;28;20411;-80
2023/12/11 05:01:04;;;;;;;40.58;6.68;;;;;;;;;;5051400;28;20748;-80
2023/12/11 05:03:31;;;;;;;37.33;7.10;;;;;;;;;;5078548;28;20419;-80
2023/12/11 05:05:57;;;;;;;42.72;7.07;;;;;;;;;;5071657;28;20404;-77
2023/12/11 05:08:23;;;;;;;39.13;7.57;;;;;;;;;;5050708;28;20413;-77
2023/12/11 05:10:49;;;;;;;38.30;6.10;;;;;;;;;;5115873;27;20509;-77
2023/12/11 05:13:15;;;;;;;39.88;6.70;;;;;;;;;;5059720;28;20405;-80
2023/12/11 05:15:41;;;;;;;37.10;6.63;;;;;;;;;;5091590;28;20807;-80
2023/12/11 05:18:07;;;;;;;37.70;7.40;;;;;;;;;;5073083;28;20439;-80
2023/12/11 05:20:33;;;;;;;33.25;6.60;;;;;;;;;;5071418;28;20428;-80
2023/12/11 05:22:59;;;;;;;31.27;6.55;;;;;;;;;;5072101;28;20403;-79
2023/12/11 05:25:25;;;;;;;36.85;6.75;;;;;;;;;;5071846;28;20515;-80
2023/12/11 05:27:52;;;;;;;35.35;6.05;;;;;;;;;;5075111;28;20390;-80
2023/12/11 05:30:18;;;;;;;32.05;6.05;;;;;;;;;;5056446;28;20405;-80
2023/12/11 05:32:44;;;;;;;29.00;5.90;;;;;;;;;;5078542;28;20451;-80
2023/12/11 05:35:10;;;;;;;38.33;6.65;;;;;;;;;;5071387;28;20485;-79
2023/12/11 05:37:36;;;;;;;35.83;6.32;;;;;;;;;;5071345;28;20449;-80
2023/12/11 05:40:03;;;;;;;34.97;6.03;;;;;;;;;;5070607;28;20426;-76
2023/12/11 05:42:30;;;;;;;25.92;5.78;;;;;;;;;;5070822;28;20403;-76
2023/12/11 05:44:56;;;;;;;30.02;6.57;;;;;;;;;;5070163;28;20434;-76
2023/12/11 05:47:22;;;;;;;28.95;5.82;;;;;;;;;;5070048;28;20803;-76
2023/12/11 05:49:48;;;;;;;31.23;6.28;;;;;;;;;;5071259;28;20438;-76
2023/12/11 05:52:14;;;;;;;32.05;6.25;;;;;;;;;;5070520;28;20472;-76
2023/12/11 05:54:40;;;;;;;33.78;6.25;;;;;;;;;;5087067;28;20970;-76
2023/12/11 05:57:06;;;;;;;33.70;6.70;;;;;;;;;;5058119;28;20487;-76
2023/12/11 05:59:32;;;;;;;33.53;6.05;;;;;;;;;;5070221;28;20420;-76
2023/12/11 06:01:59;;;;;;;34.55;6.65;;;;;;;;;;5069623;28;20514;-77
2023/12/11 06:04:25;;;;;;;34.63;5.70;;;;;;;;;;5052558;28;20423;-77
2023/12/11 06:06:51;;;;;;;33.38;6.15;;;;;;;;;;5069689;28;20407;-76
2023/12/11 06:09:17;;;;;;;38.13;6.65;;;;;;;;;;5071419;28;20594;-76
2023/12/11 06:11:43;;;;;;;36.13;6.27;;;;;;;;;;5058849;28;20408;-76
2023/12/11 06:14:09;;;;;;;36.35;6.30;;;;;;;;;;5057277;28;20460;-77
2023/12/11 06:16:35;;;;;;;26.42;5.55;;;;;;;;;;5069553;28;20416;-77
2023/12/11 06:19:01;;;;;;;38.92;6.47;;;;;;;;;;5052602;28;20481;-76
2023/12/11 06:21:27;;;;;;;31.15;5.90;;;;;;;;;;5068372;28;20900;-76
2023/12/11 06:23:53;;;;;;;38.88;6.30;;;;;;;;;;5069423;28;20411;-76
2023/12/11 06:26:34;;;;;;;36.63;6.97;;;;;;;;;;5071229;28;20478;-76
2023/12/11 06:29:00;;;;;;;33.55;6.25;;;;;;;;;;5078732;28;20398;-75
2023/12/11 06:31:30;;;;;;;30.63;5.80;;;;;;;;;;5070114;28;20463;-75
2023/12/11 06:33:57;;;;;;;41.40;6.40;;;;;;;;;;5088699;28;20410;-75
2023/12/11 06:36:25;;;;;;;32.47;6.40;;;;;;;;;;5073668;28;20399;-75
2023/12/11 06:38:51;;;;;;;39.05;6.47;;;;;;;;;;5058555;28;20424;-75
2023/12/11 06:41:17;;;;;;;36.50;6.20;;;;;;;;;;5077241;28;20411;-76
2023/12/11 06:43:47;;;;;;;36.75;6.28;;;;;;;;;;5069745;28;20883;-76
2023/12/11 06:46:13;;;;;;;35.10;5.75;;;;;;;;;;5102899;28;20454;-76
2023/12/11 06:48:39;;;;;;;28.48;5.65;;;;;;;;;;5069716;28;20414;-75
2023/12/11 06:51:05;;;;;;;29.95;5.35;;;;;;;;;;5091030;28;20406;-76
2023/12/11 06:53:31;;;;;;;33.63;5.75;;;;;;;;;;5073979;28;20958;-76
2023/12/11 06:55:58;;;;;;;37.70;6.53;;;;;;;;;;5079833;28;20414;-75
2023/12/11 06:58:24;;;;;;;33.72;6.25;;;;;;;;;;5069348;28;20474;-76
2023/12/11 07:00:50;;;;;;;30.98;5.30;;;;;;;;;;5074314;28;20405;-76
2023/12/11 07:03:17;;;;;;;29.13;4.90;;;;;;;;;;5052239;28;20419;-76
2023/12/11 07:05:43;;;;;;;28.33;5.13;;;;;;;;;;5069326;28;20449;-76
2023/12/11 07:08:09;;;;;;;29.35;5.10;;;;;;;;;;5085870;28;20439;-76
2023/12/11 07:10:36;;;;;;;30.15;4.93;;;;;;;;;;5056112;28;20896;-75
2023/12/11 07:13:05;;;;;;;28.20;5.77;;;;;;;;;;5068986;28;20407;-77
2023/12/11 07:15:31;;;;;;;26.23;4.65;;;;;;;;;;5035823;28;20902;-77
2023/12/11 07:17:57;;;;;;;32.78;5.57;;;;;;;;;;5068622;28;20411;-76
2023/12/11 07:20:23;;;;;;;22.70;4.72;;;;;;;;;;5068397;28;20984;-77
2023/12/11 07:22:50;;;;;;;31.60;5.70;;;;;;;;;;5068891;28;20406;-79
2023/12/11 07:25:16;;;;;;;27.02;5.10;;;;;;;;;;5064635;28;20896;-80
2023/12/11 07:27:43;;;;;;;24.80;4.35;;;;;;;;;;5070974;28;20406;-79
2023/12/11 07:30:09;;;;;;;26.75;5.43;;;;;;;;;;5072833;28;20470;-79
2023/12/11 07:32:36;;;;;;;29.15;4.70;;;;;;;;;;5067220;28;20409;-79
2023/12/11 07:35:02;;;;;;;24.13;5.22;;;;;;;;;;5068880;28;20422;-79
2023/12/11 07:37:28;;;;;;;26.42;5.55;;;;;;;;;;5073595;28;20906;-79
2023/12/11 07:39:55;;;;;;;20.92;4.60;;;;;;;;;;5072945;28;20451;-79
2023/12/11 07:42:22;;;;;;;23.70;4.68;;;;;;;;;;5073782;28;20737;-79
2023/12/11 07:44:48;;;;;;;20.27;4.22;;;;;;;;;;5057360;28;20756;-79
2023/12/11 07:47:14;;;;;;;19.90;4.03;;;;;;;;;;5057209;28;20895;-80
2023/12/11 07:49:40;;;;;;;20.85;4.28;;;;;;;;;;5073638;28;20493;-78
2023/12/11 07:52:06;;;;;;;18.02;3.75;;;;;;;;;;5073431;28;20510;-79
2023/12/11 07:54:32;;;;;;;19.10;4.43;;;;;;;;;;5073913;28;20403;-79
2023/12/11 07:56:58;;;;;;;20.25;4.03;;;;;;;;;;5076224;28;20401;-77
2023/12/11 07:59:25;;;;;;;22.05;4.55;;;;;;;;;;5083854;28;20437;-76
2023/12/11 08:01:52;;;;;;;20.97;4.37;;;;;;;;;;5089689;28;20906;-76
2023/12/11 08:04:19;;;;;;;21.57;4.83;;;;;;;;;;5076260;28;20532;-76
2023/12/11 08:06:45;;;;;;;21.02;5.10;;;;;;;;;;5075848;28;20415;-76
2023/12/11 08:09:11;;;;;;;22.15;5.22;;;;;;;;;;5088052;28;20490;-76
2023/12/11 08:11:37;;;;;;;24.92;5.75;;;;;;;;;;5086382;28;20406;-76
2023/12/11 08:14:03;;;;;;;19.67;4.88;;;;;;;;;;5074307;28;20522;-76
2023/12/11 08:16:31;;;;;;;24.43;5.90;;;;;;;;;;5053788;28;20451;-76
2023/12/11 08:18:57;;;;;;;23.73;5.27;;;;;;;;;;5071496;28;20424;-76
2023/12/11 08:21:23;;;;;;;23.25;5.60;;;;;;;;;;5054810;28;20410;-76
2023/12/11 08:23:51;;;;;;;21.67;5.63;;;;;;;;;;5086612;28;20419;-76
2023/12/11 08:26:20;;;;;;;18.70;4.93;;;;;;;;;;5070378;28;20419;-76
2023/12/11 08:28:48;;;;;;;22.10;5.57;;;;;;;;;;5053941;28;20400;-76
2023/12/11 08:31:15;;;;;;;24.33;6.30;;;;;;;;;;5054536;28;20665;-76
2023/12/11 08:33:41;;;;;;;27.20;6.18;;;;;;;;;;5072048;28;21003;-76
2023/12/11 08:36:07;;;;;;;22.92;5.78;;;;;;;;;;5070064;28;20427;-77
2023/12/11 08:38:34;;;;;;;20.00;5.57;;;;;;;;;;5056269;28;20487;-76
2023/12/11 08:41:00;;;;;;;25.13;6.27;;;;;;;;;;5070027;28;20458;-76
2023/12/11 08:43:26;;;;;;;24.08;6.53;;;;;;;;;;5055277;28;20411;-79
2023/12/11 08:45:52;;;;;;;23.08;6.05;;;;;;;;;;5052485;28;20924;-81
2023/12/11 08:48:18;;;;;;;27.63;6.35;;;;;;;;;;5080523;28;20395;-79
2023/12/11 08:50:44;;;;;;;24.08;6.05;;;;;;;;;;5055668;28;20411;-79
2023/12/11 08:53:11;;;;;;;19.40;5.67;;;;;;;;;;5072410;28;20436;-79
2023/12/11 08:55:37;;;;;;;25.48;6.38;;;;;;;;;;5055925;28;20404;-79
2023/12/11 08:58:03;;;;;;;28.00;6.55;;;;;;;;;;5071615;28;20450;-75
2023/12/11 09:00:29;;;;;;;26.80;6.45;;;;;;;;;;5088017;28;20952;-75
2023/12/11 09:02:55;;;;;;;28.30;6.97;;;;;;;;;;5089010;28;20445;-75
2023/12/11 09:05:23;;;;;;;28.67;6.85;;;;;;;;;;5050499;28;20437;-76
2023/12/11 09:07:50;;;;;;;31.48;6.45;;;;;;;;;;5070179;28;20411;-76
2023/12/11 09:10:16;;;;;;;20.52;6.07;;;;;;;;;;5055101;28;20416;-75
2023/12/11 09:12:42;;;;;;;26.77;5.75;;;;;;;;;;5074758;28;20415;-76
2023/12/11 09:15:08;;;;;;;26.30;6.00;;;;;;;;;;5086447;28;20786;-76
2023/12/11 09:17:34;;;;;;;28.75;5.57;;;;;;;;;;5071670;28;20415;-75
2023/12/11 09:20:04;;;;;;;20.87;5.10;;;;;;;;;;5069972;28;20428;-76
2023/12/11 09:22:31;;;;;;;23.58;5.22;;;;;;;;;;5070665;28;20416;-76
2023/12/11 09:24:57;;;;;;;24.63;5.40;;;;;;;;;;5071531;28;20396;-76
2023/12/11 09:27:23;;;;;;;28.60;5.67;;;;;;;;;;5072087;28;20427;-75
2023/12/11 09:29:49;;;;;;;21.65;5.47;;;;;;;;;;5072018;28;20438;-75
2023/12/11 09:32:15;;;;;;;20.88;4.85;;;;;;;;;;5072333;28;20417;-76
2023/12/11 09:34:42;;;;;;;26.15;5.22;;;;;;;;;;5054187;28;20453;-75
2023/12/11 09:37:08;;;;;;;26.60;5.00;;;;;;;;;;5070596;28;20472;-76
2023/12/11 09:39:35;;;;;;;22.73;5.15;;;;;;;;;;5054614;28;20451;-76
2023/12/11 09:42:02;;;;;;;24.90;6.00;;;;;;;;;;5073213;28;20400;-76
2023/12/11 09:44:28;;;;;;;24.88;5.88;;;;;;;;;;5080422;28;20488;-76
2023/12/11 09:47:11;;;;;;;29.90;12.40;;;;;;;;;;5070864;28;20971;-76
2023/12/11 09:49:38;;;;;;;21.10;4.75;;;;;;;;;;5081786;28;20422;-76
2023/12/11 09:52:04;;;;;;;22.13;5.30;;;;;;;;;;5080590;28;20896;-80
2023/12/11 09:54:31;;;;;;;19.83;4.60;;;;;;;;;;5071868;28;20574;-79
2023/12/11 09:56:58;;;;;;;20.45;5.38;;;;;;;;;;5073089;28;20404;-79
2023/12/11 09:59:26;;;;;;;20.67;5.70;;;;;;;;;;5054115;28;20931;-80
2023/12/11 10:01:52;;;;;;;19.60;4.68;;;;;;;;;;5086336;28;20415;-80
2023/12/11 10:04:18;;;;;;;26.48;5.47;;;;;;;;;;5070168;28;20447;-83
2023/12/11 10:06:44;;;;;;;23.52;5.05;;;;;;;;;;5082692;28;20484;-81
2023/12/11 10:09:27;;;;;;;22.37;5.00;;;;;;;;;;5083655;28;20408;-83
2023/12/11 10:12:06;;;;;;;21.10;6.55;;;;;;;;;;5069390;28;20919;-79
2023/12/11 10:14:32;;;;;;;21.15;6.18;;;;;;;;;;5087336;28;20410;-80
2023/12/11 10:16:58;;;;;;;20.50;5.03;;;;;;;;;;5071365;28;20407;-78
2023/12/11 10:19:31;;;;;;;18.75;4.93;;;;;;;;;;5071136;28;20446;-80
2023/12/11 10:21:58;;;;;;;18.70;3.70;;;;;;;;;;5071030;28;20435;-76
2023/12/11 10:24:24;;;;;;;21.07;4.00;;;;;;;;;;5046755;28;20425;-76
2023/12/11 10:26:55;;;;;;;24.17;4.40;;;;;;;;;;5074022;28;20530;-76
2023/12/11 10:29:30;;;;;;;23.47;4.43;;;;;;;;;;5086403;28;20922;-76
2023/12/11 10:32:03;;;;;;;20.55;4.05;;;;;;;;;;5068787;28;20431;-76
2023/12/11 10:34:48;;;;;;;23.60;4.30;;;;;;;;;;5068799;28;20431;-76
2023/12/11 10:37:14;;;;;;;20.10;4.28;;;;;;;;;;5085851;28;20407;-76
2023/12/11 10:39:59;;;;;;;29.75;4.80;;;;;;;;;;5084607;28;20431;-76
2023/12/11 10:42:26;;;;;;;24.75;4.18;;;;;;;;;;5064298;28;20422;-76
2023/12/11 10:44:53;;;;;;;24.05;4.43;;;;;;;;;;5069268;28;20407;-76
2023/12/11 10:47:19;;;;;;;23.23;4.40;;;;;;;;;;5067420;28;20922;-76
2023/12/11 10:49:46;;;;;;;22.15;3.92;;;;;;;;;;5082018;28;20568;-76
2023/12/11 10:52:12;;;;;;;21.33;4.28;;;;;;;;;;5067797;28;20937;-76
2023/12/11 10:54:38;;;;;;;25.27;4.15;;;;;;;;;;5068509;28;20481;-76
2023/12/11 10:57:06;;;;;;;23.13;5.30;;;;;;;;;;5043021;28;20751;-76
2023/12/11 10:59:33;;;;;;;22.42;4.32;;;;;;;;;;5066491;28;20451;-76
2023/12/11 11:02:01;;;;;;;19.07;4.20;;;;;;;;;;5083797;28;20455;-76
2023/12/11 11:04:29;;;;;;;18.08;4.10;;;;;;;;;;5084893;28;20446;-76
2023/12/11 11:06:59;;;;;;;20.37;4.70;;;;;;;;;;5105041;28;20403;-76
2023/12/11 11:09:30;;;;;;;23.35;4.40;;;;;;;;;;5104370;28;20918;-75
2023/12/11 11:12:02;;;;;;;23.10;4.82;;;;;;;;;;5073122;28;20520;-75
2023/12/11 11:14:38;;;;;;;22.97;4.37;;;;;;;;;;5087915;28;20403;-76
2023/12/11 11:17:04;;;;;;;22.27;3.77;;;;;;;;;;5081555;28;21526;-76
2023/12/11 11:19:30;;;;;;;22.35;4.15;;;;;;;;;;5087863;28;20930;-76
2023/12/11 11:22:08;;;;;;;15.65;3.70;;;;;;;;;;5070380;28;20400;-76
2023/12/11 11:24:35;;;;;;;16.20;3.77;;;;;;;;;;5071960;28;20415;-75
2023/12/11 11:27:02;;;;;;;13.95;3.10;;;;;;;;;;5072731;28;20399;-75
2023/12/11 11:29:44;;;;;;;14.85;3.00;;;;;;;;;;5072833;28;20407;-76
2023/12/11 11:32:10;;;;;;;13.20;2.47;;;;;;;;;;5072563;28;20437;-76
2023/12/11 11:34:42;;;;;;;13.27;2.50;;;;;;;;;;5072162;28;20404;-76
2023/12/11 11:37:14;;;;;;;11.70;2.17;;;;;;;;;;5071767;28;20420;-76
2023/12/11 11:39:58;;;;;;;13.52;2.67;;;;;;;;;;5088094;28;21002;-76
2023/12/11 11:42:28;;;;;;;11.23;2.80;;;;;;;;;;5072656;28;20396;-76
2023/12/11 11:44:56;;;;;;;15.82;3.20;;;;;;;;;;5071900;28;20411;-76
2023/12/11 11:47:22;;;;;;;14.45;3.33;;;;;;;;;;5088938;28;20914;-76
2023/12/11 11:49:48;;;;;;;16.05;3.70;;;;;;;;;;5088478;28;20435;-76
2023/12/11 11:52:14;;;;;;;20.63;4.32;;;;;;;;;;5072011;28;20408;-76
2023/12/11 11:54:41;;;;;;;22.40;4.95;;;;;;;;;;5065748;28;20424;-75
2023/12/11 11:57:07;;;;;;;22.57;4.73;;;;;;;;;;5081422;28;20930;-76
2023/12/11 11:59:43;;;;;;;20.48;4.93;;;;;;;;;;5075871;28;20507;-75
2023/12/11 12:02:10;;;;;;;22.80;5.03;;;;;;;;;;5055933;28;20445;-75
2023/12/11 12:04:36;;;;;;;20.08;4.43;;;;;;;;;;5092611;28;20408;-75
2023/12/11 12:07:04;;;;;;;19.02;4.22;;;;;;;;;;5071542;28;20447;-75
2023/12/11 12:09:31;;;;;;;23.15;4.20;;;;;;;;;;5063790;28;20428;-76
2023/12/11 12:11:58;;;;;;;19.67;4.00;;;;;;;;;;5071482;28;20494;-75
2023/12/11 12:14:27;;;;;;;18.60;3.67;;;;;;;;;;5066612;28;20433;-81
2023/12/11 12:16:55;;;;;;;20.90;3.58;;;;;;;;;;5067197;28;20481;-81
2023/12/11 12:19:31;;;;;;;15.98;3.45;;;;;;;;;;5074829;28;20427;-80
2023/12/11 12:21:58;;;;;;;17.85;3.90;;;;;;;;;;5047462;28;20396;-81
2023/12/11 12:24:25;;;;;;;16.27;3.70;;;;;;;;;;5052093;28;20451;-80
2023/12/11 12:27:11;;;;;;;15.90;3.38;;;;;;;;;;5071295;28;20502;-81
2023/12/11 12:29:38;;;;;;;15.45;3.22;;;;;;;;;;5088188;28;20414;-80
2023/12/11 12:32:04;;;;;;;13.38;3.45;;;;;;;;;;5077670;28;20412;-81
2023/12/11 12:34:31;;;;;;;10.93;3.00;;;;;;;;;;5063209;28;20419;-80
2023/12/11 12:36:58;;;;;;;16.25;5.38;;;;;;;;;;5096107;28;20400;-81
2023/12/11 12:39:24;;;;;;;28.40;10.35;;;;;;;;;;5111649;27;20424;-80
2023/12/11 12:41:50;;;;;;;58.73;20.37;;;;;;;;;;5065552;28;20905;-79
2023/12/11 12:44:20;;;;;;;21.65;4.50;;;;;;;;;;5085850;28;20479;-81
2023/12/11 12:46:46;;;;;;;42.53;13.33;;;;;;;;;;5090020;28;20892;-80
2023/12/11 12:49:16;;;;;;;38.80;11.25;;;;;;;;;;5076043;28;20411;-80
2023/12/11 12:51:53;;;;;;;18.27;7.67;;;;;;;;;;5074747;28;20404;-80
2023/12/11 12:54:20;;;;;;;12.00;3.25;;;;;;;;;;5071721;28;20431;-81
2023/12/11 12:56:56;;;;;;;10.05;1.80;;;;;;;;;;5072907;28;20400;-81
2023/12/11 12:59:23;;;;;;;11.05;2.95;;;;;;;;;;5076707;28;20426;-76
2023/12/11 13:01:49;;;;;;;16.40;3.00;;;;;;;;;;5055466;28;20420;-75
2023/12/11 13:04:15;;;;;;;11.67;2.33;;;;;;;;;;5071444;28;20463;-75
2023/12/11 13:06:42;;;;;;;17.02;4.85;;;;;;;;;;5070775;28;20403;-76
2023/12/11 13:09:08;;;;;;;14.15;5.55;;;;;;;;;;5050338;28;20433;-77
2023/12/11 13:11:38;;;;;;;8.15;2.05;;;;;;;;;;5068424;28;20411;-75
2023/12/11 13:14:05;;;;;;;13.77;2.50;;;;;;;;;;5092323;28;20403;-76
2023/12/11 13:16:31;;;;;;;9.20;1.90;;;;;;;;;;5077853;28;20467;-75
2023/12/11 13:18:57;;;;;;;8.03;1.93;;;;;;;;;;5074363;28;20489;-76
2023/12/11 13:21:24;;;;;;;8.63;1.80;;;;;;;;;;5072839;28;20504;-76
2023/12/11 13:23:50;;;;;;;11.98;2.60;;;;;;;;;;5050017;28;20483;-75
2023/12/11 13:26:16;;;;;;;8.18;1.88;;;;;;;;;;5034788;28;20893;-76
2023/12/11 13:28:42;;;;;;;11.97;3.37;;;;;;;;;;5072678;28;20396;-76
2023/12/11 13:31:08;;;;;;;12.38;3.83;;;;;;;;;;5087181;28;20443;-76
2023/12/11 13:33:34;;;;;;;11.60;4.32;;;;;;;;;;5069893;28;20399;-76
2023/12/11 13:36:01;;;;;;;14.00;3.03;;;;;;;;;;5053534;28;20411;-76
2023/12/11 13:38:27;;;;;;;8.15;2.10;;;;;;;;;;5085578;28;20407;-76
2023/12/11 13:40:53;;;;;;;13.25;2.40;;;;;;;;;;5052950;28;20482;-76
2023/12/11 13:43:19;;;;;;;11.40;3.15;;;;;;;;;;5053251;28;20427;-76
2023/12/11 13:45:45;;;;;;;12.38;2.60;;;;;;;;;;5069461;28;20399;-76
2023/12/11 13:48:11;;;;;;;9.50;2.58;;;;;;;;;;5070215;28;20520;-76
2023/12/11 13:50:37;;;;;;;7.53;2.10;;;;;;;;;;5070606;28;20411;-76
2023/12/11 13:53:03;;;;;;;8.05;1.90;;;;;;;;;;5069935;28;20396;-75
2023/12/11 13:55:29;;;;;;;9.70;2.03;;;;;;;;;;5051657;28;20516;-75
2023/12/11 13:57:56;;;;;;;9.32;1.80;;;;;;;;;;5068819;28;20414;-76
2023/12/11 14:00:22;;;;;;;10.38;2.13;;;;;;;;;;5051578;28;20930;-75
2023/12/11 14:02:48;;;;;;;8.98;2.20;;;;;;;;;;5068103;28;20427;-76
2023/12/11 14:05:14;;;;;;;11.75;3.63;;;;;;;;;;5085007;28;20419;-75
2023/12/11 14:07:41;;;;;;;16.05;6.85;;;;;;;;;;5069673;28;20399;-76
2023/12/11 14:10:08;;;;;;;11.93;4.65;;;;;;;;;;5069303;28;20772;-76
2023/12/11 14:12:38;;;;;;;17.58;7.32;;;;;;;;;;5067645;28;20950;-76
2023/12/11 14:15:07;;;;;;;14.07;5.40;;;;;;;;;;5051253;28;20420;-76
2023/12/11 14:17:34;;;;;;;8.77;2.20;;;;;;;;;;5088470;28;20427;-76
2023/12/11 14:20:00;;;;;;;12.52;1.70;;;;;;;;;;5056088;28;20455;-76
2023/12/11 14:22:26;;;;;;;12.23;2.58;;;;;;;;;;5085763;28;20400;-75
2023/12/11 14:24:53;;;;;;;11.15;2.45;;;;;;;;;;5069531;28;20490;-75
2023/12/11 14:27:19;;;;;;;8.63;3.17;;;;;;;;;;5066149;28;20427;-75
2023/12/11 14:29:45;;;;;;;8.45;4.47;;;;;;;;;;5069410;28;20400;-76